sensor_id;sensor_type;location;lat;lon;timestamp;temperature;humidity
44723;DHT22;30451;48.638;10.624;2023-04-19T00:01:24;22.60;46.60
44723;DHT22;30451;48.638;10.624;2023-04-19T00:03:49;22.60;46.60
44723;DHT22;30451;48.638;10.624;2023-04-19T00:06:15;22.60;46.60
44723;DHT22;30451;48.638;10.624;2023-04-19T00:08:42;22.60;46.70
44723;DHT22;30451;48.638;10.624;2023-04-19T00:11:08;22.50;47.10
44723;DHT22;30451;48.638;10.624;2023-04-19T00:13:34;22.50;46.60
44723;DHT22;30451;48.638;10.624;2023-04-19T00:16:00;22.50;46.60
44723;DHT22;30451;48.638;10.624;2023-04-19T00:18:26;22.50;46.70
44723;DHT22;30451;48.638;10.624;2023-04-19T00:20:52;22.50;46.70
44723;DHT22;30451;48.638;10.624;2023-04-19T00:23:17;22.50;46.70
44723;DHT22;30451;48.638;10.624;2023-04-19T00:25:45;22.50;46.70
44723;DHT22;30451;48.638;10.624;2023-04-19T00:28:11;22.50;46.70
44723;DHT22;30451;48.638;10.624;2023-04-19T00:30:36;22.40;46.70
44723;DHT22;30451;48.638;10.624;2023-04-19T00:33:02;22.40;46.70
44723;DHT22;30451;48.638;10.624;2023-04-19T00:35:27;22.40;46.70
44723;DHT22;30451;48.638;10.624;2023-04-19T00:37:53;22.40;47.30
44723;DHT22;30451;48.638;10.624;2023-04-19T00:40:19;22.40;46.80
44723;DHT22;30451;48.638;10.624;2023-04-19T00:42:44;22.40;46.80
44723;DHT22;30451;48.638;10.624;2023-04-19T00:45:10;22.30;46.70
44723;DHT22;30451;48.638;10.624;2023-04-19T00:47:37;22.30;46.80
44723;DHT22;30451;48.638;10.624;2023-04-19T00:50:03;22.30;46.80
44723;DHT22;30451;48.638;10.624;2023-04-19T00:52:29;22.30;46.80
44723;DHT22;30451;48.638;10.624;2023-04-19T00:54:57;22.30;46.80
44723;DHT22;30451;48.638;10.624;2023-04-19T00:57:24;22.30;46.80
44723;DHT22;30451;48.638;10.624;2023-04-19T00:59:50;22.30;46.90
44723;DHT22;30451;48.638;10.624;2023-04-19T01:02:16;22.30;46.90
44723;DHT22;30451;48.638;10.624;2023-04-19T01:04:42;22.20;46.80
44723;DHT22;30451;48.638;10.624;2023-04-19T01:07:08;22.30;46.90
44723;DHT22;30451;48.638;10.624;2023-04-19T01:09:33;22.20;46.80
44723;DHT22;30451;48.638;10.624;2023-04-19T01:12:00;22.20;46.90
44723;DHT22;30451;48.638;10.624;2023-04-19T01:14:26;22.20;46.90
44723;DHT22;30451;48.638;10.624;2023-04-19T01:16:52;22.20;46.90
44723;DHT22;30451;48.638;10.624;2023-04-19T01:19:18;22.20;46.90
44723;DHT22;30451;48.638;10.624;2023-04-19T01:21:44;22.20;47.40
44723;DHT22;30451;48.638;10.624;2023-04-19T01:24:10;22.20;47.00
44723;DHT22;30451;48.638;10.624;2023-04-19T01:26:36;22.20;47.00
44723;DHT22;30451;48.638;10.624;2023-04-19T01:29:02;22.10;47.00
44723;DHT22;30451;48.638;10.624;2023-04-19T01:31:28;22.20;47.00
44723;DHT22;30451;48.638;10.624;2023-04-19T01:33:53;22.10;47.00
44723;DHT22;30451;48.638;10.624;2023-04-19T01:36:19;22.10;47.00
44723;DHT22;30451;48.638;10.624;2023-04-19T01:38:44;22.20;47.00
44723;DHT22;30451;48.638;10.624;2023-04-19T01:41:12;22.10;47.00
44723;DHT22;30451;48.638;10.624;2023-04-19T01:43:38;22.10;47.00
44723;DHT22;30451;48.638;10.624;2023-04-19T01:46:03;22.10;47.00
44723;DHT22;30451;48.638;10.624;2023-04-19T01:48:29;22.10;47.00
44723;DHT22;30451;48.638;10.624;2023-04-19T01:50:55;22.10;47.00
44723;DHT22;30451;48.638;10.624;2023-04-19T01:53:21;22.10;47.10
44723;DHT22;30451;48.638;10.624;2023-04-19T01:55:46;22.10;47.10
44723;DHT22;30451;48.638;10.624;2023-04-19T01:58:12;22.00;47.00
44723;DHT22;30451;48.638;10.624;2023-04-19T02:00:37;22.00;47.00
44723;DHT22;30451;48.638;10.624;2023-04-19T02:03:03;22.10;47.10
44723;DHT22;30451;48.638;10.624;2023-04-19T02:05:29;22.00;47.00
44723;DHT22;30451;48.638;10.624;2023-04-19T02:07:54;22.00;47.10
44723;DHT22;30451;48.638;10.624;2023-04-19T02:10:20;22.00;47.00
44723;DHT22;30451;48.638;10.624;2023-04-19T02:12:45;22.00;47.10
44723;DHT22;30451;48.638;10.624;2023-04-19T02:15:11;22.00;47.10
44723;DHT22;30451;48.638;10.624;2023-04-19T02:17:37;22.00;47.10
44723;DHT22;30451;48.638;10.624;2023-04-19T02:20:04;22.00;47.10
44723;DHT22;30451;48.638;10.624;2023-04-19T02:22:30;22.00;47.10
44723;DHT22;30451;48.638;10.624;2023-04-19T02:24:55;22.00;47.20
44723;DHT22;30451;48.638;10.624;2023-04-19T02:27:21;21.90;47.10
44723;DHT22;30451;48.638;10.624;2023-04-19T02:29:46;21.90;47.10
44723;DHT22;30451;48.638;10.624;2023-04-19T02:32:12;22.00;47.20
44723;DHT22;30451;48.638;10.624;2023-04-19T02:34:38;21.90;47.10
44723;DHT22;30451;48.638;10.624;2023-04-19T02:37:04;21.90;47.10
44723;DHT22;30451;48.638;10.624;2023-04-19T02:39:30;21.90;47.20
44723;DHT22;30451;48.638;10.624;2023-04-19T02:41:56;21.90;47.20
44723;DHT22;30451;48.638;10.624;2023-04-19T02:44:22;21.90;47.10
44723;DHT22;30451;48.638;10.624;2023-04-19T02:46:51;21.90;47.20
44723;DHT22;30451;48.638;10.624;2023-04-19T02:49:17;21.90;47.20
44723;DHT22;30451;48.638;10.624;2023-04-19T02:51:43;21.90;47.20
44723;DHT22;30451;48.638;10.624;2023-04-19T02:54:09;21.90;47.20
44723;DHT22;30451;48.638;10.624;2023-04-19T02:56:35;21.90;47.20
44723;DHT22;30451;48.638;10.624;2023-04-19T02:59:01;21.90;47.20
44723;DHT22;30451;48.638;10.624;2023-04-19T03:01:27;21.90;47.20
44723;DHT22;30451;48.638;10.624;2023-04-19T03:03:52;21.80;47.20
44723;DHT22;30451;48.638;10.624;2023-04-19T03:06:18;21.80;47.10
44723;DHT22;30451;48.638;10.624;2023-04-19T03:08:44;21.80;47.20
44723;DHT22;30451;48.638;10.624;2023-04-19T03:11:14;21.80;47.20
44723;DHT22;30451;48.638;10.624;2023-04-19T03:13:40;21.80;47.10
44723;DHT22;30451;48.638;10.624;2023-04-19T03:16:06;21.80;47.20
44723;DHT22;30451;48.638;10.624;2023-04-19T03:18:32;21.80;47.20
44723;DHT22;30451;48.638;10.624;2023-04-19T03:20:58;21.80;47.20
44723;DHT22;30451;48.638;10.624;2023-04-19T03:23:25;21.80;47.20
44723;DHT22;30451;48.638;10.624;2023-04-19T03:25:51;21.80;47.20
44723;DHT22;30451;48.638;10.624;2023-04-19T03:28:17;21.80;47.20
44723;DHT22;30451;48.638;10.624;2023-04-19T03:30:43;21.80;47.20
44723;DHT22;30451;48.638;10.624;2023-04-19T03:33:09;21.70;47.20
44723;DHT22;30451;48.638;10.624;2023-04-19T03:35:34;21.70;47.20
44723;DHT22;30451;48.638;10.624;2023-04-19T03:38:00;21.70;47.20
44723;DHT22;30451;48.638;10.624;2023-04-19T03:40:26;21.70;47.20
44723;DHT22;30451;48.638;10.624;2023-04-19T03:42:51;21.70;47.20
44723;DHT22;30451;48.638;10.624;2023-04-19T03:45:17;21.70;47.20
44723;DHT22;30451;48.638;10.624;2023-04-19T03:47:43;21.70;47.20
44723;DHT22;30451;48.638;10.624;2023-04-19T03:50:08;21.70;47.20
44723;DHT22;30451;48.638;10.624;2023-04-19T03:52:34;21.70;47.20
44723;DHT22;30451;48.638;10.624;2023-04-19T03:55:00;21.70;47.20
44723;DHT22;30451;48.638;10.624;2023-04-19T03:57:25;21.70;47.20
44723;DHT22;30451;48.638;10.624;2023-04-19T03:59:51;21.70;47.30
44723;DHT22;30451;48.638;10.624;2023-04-19T04:02:17;21.70;47.20
44723;DHT22;30451;48.638;10.624;2023-04-19T04:04:42;21.70;47.30
44723;DHT22;30451;48.638;10.624;2023-04-19T04:07:08;21.70;47.30
44723;DHT22;30451;48.638;10.624;2023-04-19T04:09:33;21.70;47.30
44723;DHT22;30451;48.638;10.624;2023-04-19T04:11:59;21.70;47.40
44723;DHT22;30451;48.638;10.624;2023-04-19T04:14:25;21.60;47.30
44723;DHT22;30451;48.638;10.624;2023-04-19T04:16:50;21.70;47.30
44723;DHT22;30451;48.638;10.624;2023-04-19T04:19:16;21.70;47.30
44723;DHT22;30451;48.638;10.624;2023-04-19T04:21:42;21.70;47.30
44723;DHT22;30451;48.638;10.624;2023-04-19T04:24:08;21.70;47.20
44723;DHT22;30451;48.638;10.624;2023-04-19T04:26:34;21.60;47.20
44723;DHT22;30451;48.638;10.624;2023-04-19T04:29:00;21.60;47.20
44723;DHT22;30451;48.638;10.624;2023-04-19T04:31:28;21.60;47.20
44723;DHT22;30451;48.638;10.624;2023-04-19T04:33:54;21.60;47.20
44723;DHT22;30451;48.638;10.624;2023-04-19T04:36:20;21.60;47.10
44723;DHT22;30451;48.638;10.624;2023-04-19T04:38:46;21.60;47.00
44723;DHT22;30451;48.638;10.624;2023-04-19T04:41:12;21.60;47.00
44723;DHT22;30451;48.638;10.624;2023-04-19T04:43:38;21.60;47.00
44723;DHT22;30451;48.638;10.624;2023-04-19T04:46:04;21.60;47.00
44723;DHT22;30451;48.638;10.624;2023-04-19T04:48:30;21.60;47.00
44723;DHT22;30451;48.638;10.624;2023-04-19T04:50:56;21.60;47.00
44723;DHT22;30451;48.638;10.624;2023-04-19T04:53:24;21.60;47.00
44723;DHT22;30451;48.638;10.624;2023-04-19T04:55:52;21.60;47.00
44723;DHT22;30451;48.638;10.624;2023-04-19T04:58:18;21.60;47.00
44723;DHT22;30451;48.638;10.624;2023-04-19T05:00:44;21.60;47.10
44723;DHT22;30451;48.638;10.624;2023-04-19T05:03:10;21.60;47.10
44723;DHT22;30451;48.638;10.624;2023-04-19T05:05:35;21.50;47.10
44723;DHT22;30451;48.638;10.624;2023-04-19T05:08:01;21.60;47.20
44723;DHT22;30451;48.638;10.624;2023-04-19T05:10:27;21.50;47.10
44723;DHT22;30451;48.638;10.624;2023-04-19T05:12:52;21.50;47.10
44723;DHT22;30451;48.638;10.624;2023-04-19T05:15:18;21.50;47.20
44723;DHT22;30451;48.638;10.624;2023-04-19T05:17:43;21.50;47.10
44723;DHT22;30451;48.638;10.624;2023-04-19T05:20:09;21.50;47.20
44723;DHT22;30451;48.638;10.624;2023-04-19T05:22:35;21.50;47.20
44723;DHT22;30451;48.638;10.624;2023-04-19T05:25:01;21.50;47.20
44723;DHT22;30451;48.638;10.624;2023-04-19T05:27:26;21.50;47.20
44723;DHT22;30451;48.638;10.624;2023-04-19T05:29:52;21.50;47.20
44723;DHT22;30451;48.638;10.624;2023-04-19T05:32:18;21.50;47.70
44723;DHT22;30451;48.638;10.624;2023-04-19T05:34:43;21.50;47.30
44723;DHT22;30451;48.638;10.624;2023-04-19T05:37:09;21.50;47.30
44723;DHT22;30451;48.638;10.624;2023-04-19T05:39:35;21.50;47.30
44723;DHT22;30451;48.638;10.624;2023-04-19T05:42:00;21.50;47.30
44723;DHT22;30451;48.638;10.624;2023-04-19T05:44:26;21.50;47.30
44723;DHT22;30451;48.638;10.624;2023-04-19T05:46:51;21.50;47.30
44723;DHT22;30451;48.638;10.624;2023-04-19T05:49:17;21.50;47.40
44723;DHT22;30451;48.638;10.624;2023-04-19T05:51:43;21.50;47.60
44723;DHT22;30451;48.638;10.624;2023-04-19T05:54:08;21.50;48.00
44723;DHT22;30451;48.638;10.624;2023-04-19T05:56:37;21.50;47.80
44723;DHT22;30451;48.638;10.624;2023-04-19T05:59:03;21.50;47.90
44723;DHT22;30451;48.638;10.624;2023-04-19T06:01:29;21.60;47.80
44723;DHT22;30451;48.638;10.624;2023-04-19T06:03:54;21.60;47.80
44723;DHT22;30451;48.638;10.624;2023-04-19T06:06:21;21.60;47.80
44723;DHT22;30451;48.638;10.624;2023-04-19T06:08:47;21.60;47.80
44723;DHT22;30451;48.638;10.624;2023-04-19T06:11:12;21.60;47.80
44723;DHT22;30451;48.638;10.624;2023-04-19T06:13:38;21.60;47.80
44723;DHT22;30451;48.638;10.624;2023-04-19T06:16:04;21.60;47.80
44723;DHT22;30451;48.638;10.624;2023-04-19T06:18:30;21.60;47.70
44723;DHT22;30451;48.638;10.624;2023-04-19T06:20:56;21.70;47.80
44723;DHT22;30451;48.638;10.624;2023-04-19T06:23:22;21.60;47.60
44723;DHT22;30451;48.638;10.624;2023-04-19T06:25:48;21.70;47.70
44723;DHT22;30451;48.638;10.624;2023-04-19T06:28:13;21.70;47.60
44723;DHT22;30451;48.638;10.624;2023-04-19T06:30:39;21.70;47.60
44723;DHT22;30451;48.638;10.624;2023-04-19T06:33:05;21.70;47.60
44723;DHT22;30451;48.638;10.624;2023-04-19T06:35:31;21.80;47.60
44723;DHT22;30451;48.638;10.624;2023-04-19T06:37:58;21.80;47.50
44723;DHT22;30451;48.638;10.624;2023-04-19T06:40:24;21.80;47.50
44723;DHT22;30451;48.638;10.624;2023-04-19T06:42:51;21.80;47.50
44723;DHT22;30451;48.638;10.624;2023-04-19T06:45:17;21.80;47.50
44723;DHT22;30451;48.638;10.624;2023-04-19T06:47:43;21.90;47.50
44723;DHT22;30451;48.638;10.624;2023-04-19T06:50:09;21.80;47.40
44723;DHT22;30451;48.638;10.624;2023-04-19T06:52:35;21.80;47.30
44723;DHT22;30451;48.638;10.624;2023-04-19T06:55:01;21.90;47.40
44723;DHT22;30451;48.638;10.624;2023-04-19T06:57:27;21.90;47.30
44723;DHT22;30451;48.638;10.624;2023-04-19T06:59:55;21.90;47.30
44723;DHT22;30451;48.638;10.624;2023-04-19T07:02:22;22.00;47.30
44723;DHT22;30451;48.638;10.624;2023-04-19T07:04:47;22.00;47.30
44723;DHT22;30451;48.638;10.624;2023-04-19T07:07:13;22.00;47.30
44723;DHT22;30451;48.638;10.624;2023-04-19T07:09:39;22.00;47.30
44723;DHT22;30451;48.638;10.624;2023-04-19T07:12:05;22.00;47.20
44723;DHT22;30451;48.638;10.624;2023-04-19T07:14:31;22.00;47.20
44723;DHT22;30451;48.638;10.624;2023-04-19T07:16:56;22.00;47.20
44723;DHT22;30451;48.638;10.624;2023-04-19T07:19:22;22.10;47.20
44723;DHT22;30451;48.638;10.624;2023-04-19T07:21:48;22.10;47.10
44723;DHT22;30451;48.638;10.624;2023-04-19T07:24:14;22.10;47.10
44723;DHT22;30451;48.638;10.624;2023-04-19T07:26:41;22.10;47.30
44723;DHT22;30451;48.638;10.624;2023-04-19T07:29:07;22.10;47.10
44723;DHT22;30451;48.638;10.624;2023-04-19T07:31:32;22.20;47.20
44723;DHT22;30451;48.638;10.624;2023-04-19T07:33:58;22.20;47.10
44723;DHT22;30451;48.638;10.624;2023-04-19T07:36:24;22.20;47.10
44723;DHT22;30451;48.638;10.624;2023-04-19T07:38:49;22.20;47.00
44723;DHT22;30451;48.638;10.624;2023-04-19T07:41:15;22.20;47.00
44723;DHT22;30451;48.638;10.624;2023-04-19T07:43:41;22.30;47.00
44723;DHT22;30451;48.638;10.624;2023-04-19T07:46:11;22.30;47.00
44723;DHT22;30451;48.638;10.624;2023-04-19T07:48:37;22.30;47.00
44723;DHT22;30451;48.638;10.624;2023-04-19T07:51:13;22.30;47.00
44723;DHT22;30451;48.638;10.624;2023-04-19T07:53:40;22.30;46.90
44723;DHT22;30451;48.638;10.624;2023-04-19T07:56:10;22.30;46.90
44723;DHT22;30451;48.638;10.624;2023-04-19T07:58:36;22.30;47.00
44723;DHT22;30451;48.638;10.624;2023-04-19T08:01:03;22.40;47.10
44723;DHT22;30451;48.638;10.624;2023-04-19T08:03:30;22.40;47.00
44723;DHT22;30451;48.638;10.624;2023-04-19T08:05:56;22.40;47.00
44723;DHT22;30451;48.638;10.624;2023-04-19T08:08:22;22.40;47.00
44723;DHT22;30451;48.638;10.624;2023-04-19T08:10:49;22.40;46.90
44723;DHT22;30451;48.638;10.624;2023-04-19T08:13:15;22.50;46.90
44723;DHT22;30451;48.638;10.624;2023-04-19T08:15:41;22.50;46.80
44723;DHT22;30451;48.638;10.624;2023-04-19T08:18:06;22.50;46.80
44723;DHT22;30451;48.638;10.624;2023-04-19T08:20:32;22.50;46.70
44723;DHT22;30451;48.638;10.624;2023-04-19T08:22:58;22.50;46.70
44723;DHT22;30451;48.638;10.624;2023-04-19T08:25:24;22.50;46.80
44723;DHT22;30451;48.638;10.624;2023-04-19T08:27:55;22.50;46.80
44723;DHT22;30451;48.638;10.624;2023-04-19T08:30:22;22.50;46.80
44723;DHT22;30451;48.638;10.624;2023-04-19T08:32:48;22.50;46.80
44723;DHT22;30451;48.638;10.624;2023-04-19T08:35:13;22.50;46.80
44723;DHT22;30451;48.638;10.624;2023-04-19T08:37:39;22.60;46.80
44723;DHT22;30451;48.638;10.624;2023-04-19T08:40:05;22.50;46.80
44723;DHT22;30451;48.638;10.624;2023-04-19T08:42:31;22.60;47.00
44723;DHT22;30451;48.638;10.624;2023-04-19T08:45:00;22.60;46.90
44723;DHT22;30451;48.638;10.624;2023-04-19T08:47:34;22.50;46.80
44723;DHT22;30451;48.638;10.624;2023-04-19T08:50:02;22.60;46.70
44723;DHT22;30451;48.638;10.624;2023-04-19T08:52:29;22.60;46.70
44723;DHT22;30451;48.638;10.624;2023-04-19T08:54:55;22.60;46.70
44723;DHT22;30451;48.638;10.624;2023-04-19T08:57:21;22.60;46.70
44723;DHT22;30451;48.638;10.624;2023-04-19T08:59:47;22.60;46.70
44723;DHT22;30451;48.638;10.624;2023-04-19T09:02:16;22.60;46.80
44723;DHT22;30451;48.638;10.624;2023-04-19T09:04:42;22.60;46.70
44723;DHT22;30451;48.638;10.624;2023-04-19T09:07:07;22.60;46.70
44723;DHT22;30451;48.638;10.624;2023-04-19T09:09:33;22.60;46.60
44723;DHT22;30451;48.638;10.624;2023-04-19T09:12:00;22.60;46.70
44723;DHT22;30451;48.638;10.624;2023-04-19T09:14:27;22.60;46.70
44723;DHT22;30451;48.638;10.624;2023-04-19T09:16:53;22.60;46.70
44723;DHT22;30451;48.638;10.624;2023-04-19T09:19:18;22.60;46.70
44723;DHT22;30451;48.638;10.624;2023-04-19T09:21:44;22.70;46.70
44723;DHT22;30451;48.638;10.624;2023-04-19T09:24:10;22.70;46.70
44723;DHT22;30451;48.638;10.624;2023-04-19T09:26:36;22.70;46.70
44723;DHT22;30451;48.638;10.624;2023-04-19T09:29:04;22.70;46.60
44723;DHT22;30451;48.638;10.624;2023-04-19T09:31:30;22.70;46.70
44723;DHT22;30451;48.638;10.624;2023-04-19T09:33:56;22.70;46.60
44723;DHT22;30451;48.638;10.624;2023-04-19T09:36:27;22.70;46.70
44723;DHT22;30451;48.638;10.624;2023-04-19T09:38:53;22.70;46.70
44723;DHT22;30451;48.638;10.624;2023-04-19T09:41:19;22.70;46.70
44723;DHT22;30451;48.638;10.624;2023-04-19T09:43:46;22.70;46.60
44723;DHT22;30451;48.638;10.624;2023-04-19T09:49:14;22.70;46.60
44723;DHT22;30451;48.638;10.624;2023-04-19T09:51:44;22.80;46.60
44723;DHT22;30451;48.638;10.624;2023-04-19T09:54:11;22.70;46.50
44723;DHT22;30451;48.638;10.624;2023-04-19T09:56:38;22.80;46.50
44723;DHT22;30451;48.638;10.624;2023-04-19T09:59:07;22.80;46.50
44723;DHT22;30451;48.638;10.624;2023-04-19T10:01:43;22.80;46.50
44723;DHT22;30451;48.638;10.624;2023-04-19T10:04:10;22.80;46.50
44723;DHT22;30451;48.638;10.624;2023-04-19T10:06:38;22.80;46.60
44723;DHT22;30451;48.638;10.624;2023-04-19T10:09:05;22.80;46.50
44723;DHT22;30451;48.638;10.624;2023-04-19T10:11:33;22.80;46.50
44723;DHT22;30451;48.638;10.624;2023-04-19T10:14:09;22.80;46.50
44723;DHT22;30451;48.638;10.624;2023-04-19T10:16:37;22.80;46.50
44723;DHT22;30451;48.638;10.624;2023-04-19T10:19:15;22.80;46.50
44723;DHT22;30451;48.638;10.624;2023-04-19T10:21:41;22.80;46.40
44723;DHT22;30451;48.638;10.624;2023-04-19T10:24:12;22.90;46.50
44723;DHT22;30451;48.638;10.624;2023-04-19T10:30:01;22.90;46.40
44723;DHT22;30451;48.638;10.624;2023-04-19T10:32:39;22.90;46.40
44723;DHT22;30451;48.638;10.624;2023-04-19T10:35:33;22.90;46.40
44723;DHT22;30451;48.638;10.624;2023-04-19T10:40:52;22.90;46.50
44723;DHT22;30451;48.638;10.624;2023-04-19T10:43:29;22.90;46.60
44723;DHT22;30451;48.638;10.624;2023-04-19T10:46:08;22.90;46.50
44723;DHT22;30451;48.638;10.624;2023-04-19T10:48:36;22.90;46.50
44723;DHT22;30451;48.638;10.624;2023-04-19T10:51:13;23.00;46.50
44723;DHT22;30451;48.638;10.624;2023-04-19T10:56:16;22.90;46.40
44723;DHT22;30451;48.638;10.624;2023-04-19T11:01:43;23.00;46.40
44723;DHT22;30451;48.638;10.624;2023-04-19T11:06:55;23.00;46.50
44723;DHT22;30451;48.638;10.624;2023-04-19T11:09:22;23.00;46.50
44723;DHT22;30451;48.638;10.624;2023-04-19T11:11:48;23.00;46.50
44723;DHT22;30451;48.638;10.624;2023-04-19T11:14:15;23.00;46.50
44723;DHT22;30451;48.638;10.624;2023-04-19T11:16:41;23.00;46.40
44723;DHT22;30451;48.638;10.624;2023-04-19T11:19:07;23.00;46.40
44723;DHT22;30451;48.638;10.624;2023-04-19T11:21:32;23.00;46.30
44723;DHT22;30451;48.638;10.624;2023-04-19T11:24:11;23.00;46.30
44723;DHT22;30451;48.638;10.624;2023-04-19T11:26:37;23.00;46.20
44723;DHT22;30451;48.638;10.624;2023-04-19T11:29:03;23.00;46.20
44723;DHT22;30451;48.638;10.624;2023-04-19T11:31:33;23.00;46.20
44723;DHT22;30451;48.638;10.624;2023-04-19T11:33:59;23.00;46.10
44723;DHT22;30451;48.638;10.624;2023-04-19T11:36:25;23.00;46.20
44723;DHT22;30451;48.638;10.624;2023-04-19T11:38:52;23.00;46.20
44723;DHT22;30451;48.638;10.624;2023-04-19T11:41:18;23.00;46.10
44723;DHT22;30451;48.638;10.624;2023-04-19T11:43:44;23.00;46.10
44723;DHT22;30451;48.638;10.624;2023-04-19T11:46:11;23.00;46.00
44723;DHT22;30451;48.638;10.624;2023-04-19T11:48:38;23.00;46.00
44723;DHT22;30451;48.638;10.624;2023-04-19T11:51:04;23.00;46.10
44723;DHT22;30451;48.638;10.624;2023-04-19T11:53:31;23.00;46.10
44723;DHT22;30451;48.638;10.624;2023-04-19T11:56:03;23.00;46.00
44723;DHT22;30451;48.638;10.624;2023-04-19T11:58:37;23.00;46.00
44723;DHT22;30451;48.638;10.624;2023-04-19T12:03:39;23.00;46.00
44723;DHT22;30451;48.638;10.624;2023-04-19T12:06:11;22.90;46.00
44723;DHT22;30451;48.638;10.624;2023-04-19T12:08:38;22.90;46.00
44723;DHT22;30451;48.638;10.624;2023-04-19T12:11:05;22.90;46.00
44723;DHT22;30451;48.638;10.624;2023-04-19T12:13:31;22.90;45.90
44723;DHT22;30451;48.638;10.624;2023-04-19T12:15:57;22.90;46.00
44723;DHT22;30451;48.638;10.624;2023-04-19T12:18:23;22.90;46.00
44723;DHT22;30451;48.638;10.624;2023-04-19T12:20:50;22.90;46.00
44723;DHT22;30451;48.638;10.624;2023-04-19T12:23:18;22.90;46.00
44723;DHT22;30451;48.638;10.624;2023-04-19T12:25:46;22.90;46.00
44723;DHT22;30451;48.638;10.624;2023-04-19T12:28:12;22.90;46.00
44723;DHT22;30451;48.638;10.624;2023-04-19T12:30:39;22.90;45.90
44723;DHT22;30451;48.638;10.624;2023-04-19T12:33:06;22.90;45.90
44723;DHT22;30451;48.638;10.624;2023-04-19T12:35:32;22.90;46.10
44723;DHT22;30451;48.638;10.624;2023-04-19T12:37:59;22.90;46.00
44723;DHT22;30451;48.638;10.624;2023-04-19T12:40:26;22.90;46.10
44723;DHT22;30451;48.638;10.624;2023-04-19T12:42:53;22.90;46.10
44723;DHT22;30451;48.638;10.624;2023-04-19T12:45:19;22.90;46.10
44723;DHT22;30451;48.638;10.624;2023-04-19T12:47:46;22.90;46.10
44723;DHT22;30451;48.638;10.624;2023-04-19T12:50:13;22.90;46.00
44723;DHT22;30451;48.638;10.624;2023-04-19T12:52:40;22.90;46.00
44723;DHT22;30451;48.638;10.624;2023-04-19T12:55:06;22.90;46.00
44723;DHT22;30451;48.638;10.624;2023-04-19T12:57:32;22.90;46.00
44723;DHT22;30451;48.638;10.624;2023-04-19T12:59:57;22.90;46.10
44723;DHT22;30451;48.638;10.624;2023-04-19T13:02:23;22.90;46.00
44723;DHT22;30451;48.638;10.624;2023-04-19T13:04:49;22.90;46.00
44723;DHT22;30451;48.638;10.624;2023-04-19T13:07:15;22.90;46.00
44723;DHT22;30451;48.638;10.624;2023-04-19T13:09:40;22.90;46.00
44723;DHT22;30451;48.638;10.624;2023-04-19T13:12:09;22.90;46.00
44723;DHT22;30451;48.638;10.624;2023-04-19T13:14:35;22.90;46.00
44723;DHT22;30451;48.638;10.624;2023-04-19T13:17:00;22.90;46.00
44723;DHT22;30451;48.638;10.624;2023-04-19T13:19:26;22.90;46.50
44723;DHT22;30451;48.638;10.624;2023-04-19T13:21:52;22.90;46.00
44723;DHT22;30451;48.638;10.624;2023-04-19T13:24:17;22.90;46.00
44723;DHT22;30451;48.638;10.624;2023-04-19T13:26:43;22.90;45.90
44723;DHT22;30451;48.638;10.624;2023-04-19T13:29:11;22.90;45.90
44723;DHT22;30451;48.638;10.624;2023-04-19T13:31:37;22.90;45.90
44723;DHT22;30451;48.638;10.624;2023-04-19T13:34:02;22.90;45.90
44723;DHT22;30451;48.638;10.624;2023-04-19T13:36:28;22.90;45.90
44723;DHT22;30451;48.638;10.624;2023-04-19T13:38:54;22.90;45.90
44723;DHT22;30451;48.638;10.624;2023-04-19T13:41:20;22.80;45.90
44723;DHT22;30451;48.638;10.624;2023-04-19T13:43:46;22.80;45.90
44723;DHT22;30451;48.638;10.624;2023-04-19T13:46:12;22.90;45.90
44723;DHT22;30451;48.638;10.624;2023-04-19T13:48:38;22.80;45.90
44723;DHT22;30451;48.638;10.624;2023-04-19T13:51:03;22.80;45.90
44723;DHT22;30451;48.638;10.624;2023-04-19T13:53:29;22.80;45.90
44723;DHT22;30451;48.638;10.624;2023-04-19T13:55:55;22.80;46.40
44723;DHT22;30451;48.638;10.624;2023-04-19T13:58:21;22.80;45.90
44723;DHT22;30451;48.638;10.624;2023-04-19T14:00:46;22.80;45.90
44723;DHT22;30451;48.638;10.624;2023-04-19T14:03:12;22.80;45.90
44723;DHT22;30451;48.638;10.624;2023-04-19T14:05:38;22.70;45.90
44723;DHT22;30451;48.638;10.624;2023-04-19T14:08:04;22.70;45.90
44723;DHT22;30451;48.638;10.624;2023-04-19T14:10:30;22.80;45.90
44723;DHT22;30451;48.638;10.624;2023-04-19T14:12:55;22.70;45.90
44723;DHT22;30451;48.638;10.624;2023-04-19T14:15:21;22.70;45.90
44723;DHT22;30451;48.638;10.624;2023-04-19T14:17:48;22.70;45.90
44723;DHT22;30451;48.638;10.624;2023-04-19T14:20:15;22.70;45.90
44723;DHT22;30451;48.638;10.624;2023-04-19T14:22:41;22.70;45.90
44723;DHT22;30451;48.638;10.624;2023-04-19T14:25:06;22.70;46.00
44723;DHT22;30451;48.638;10.624;2023-04-19T14:27:32;22.70;46.00
44723;DHT22;30451;48.638;10.624;2023-04-19T14:29:58;22.70;46.00
44723;DHT22;30451;48.638;10.624;2023-04-19T14:32:24;22.70;45.90
44723;DHT22;30451;48.638;10.624;2023-04-19T14:34:49;22.60;45.90
44723;DHT22;30451;48.638;10.624;2023-04-19T14:37:16;22.60;46.00
44723;DHT22;30451;48.638;10.624;2023-04-19T14:39:43;22.60;46.00
44723;DHT22;30451;48.638;10.624;2023-04-19T14:42:10;22.60;46.00
44723;DHT22;30451;48.638;10.624;2023-04-19T14:44:36;22.60;46.00
44723;DHT22;30451;48.638;10.624;2023-04-19T14:47:01;22.60;46.00
44723;DHT22;30451;48.638;10.624;2023-04-19T14:49:27;22.60;46.00
44723;DHT22;30451;48.638;10.624;2023-04-19T14:51:53;22.60;46.10
44723;DHT22;30451;48.638;10.624;2023-04-19T14:54:18;22.50;46.00
44723;DHT22;30451;48.638;10.624;2023-04-19T14:56:44;22.60;46.10
44723;DHT22;30451;48.638;10.624;2023-04-19T14:59:10;22.50;46.50
44723;DHT22;30451;48.638;10.624;2023-04-19T15:01:35;22.50;46.00
44723;DHT22;30451;48.638;10.624;2023-04-19T15:04:01;22.50;46.00
44723;DHT22;30451;48.638;10.624;2023-04-19T15:06:26;22.50;46.00
44723;DHT22;30451;48.638;10.624;2023-04-19T15:08:52;22.50;46.00
44723;DHT22;30451;48.638;10.624;2023-04-19T15:11:18;22.50;46.00
44723;DHT22;30451;48.638;10.624;2023-04-19T15:13:44;22.50;46.00
44723;DHT22;30451;48.638;10.624;2023-04-19T15:16:09;22.50;46.10
44723;DHT22;30451;48.638;10.624;2023-04-19T15:18:35;22.50;46.10
44723;DHT22;30451;48.638;10.624;2023-04-19T15:21:04;22.50;46.10
44723;DHT22;30451;48.638;10.624;2023-04-19T15:23:29;22.50;46.10
44723;DHT22;30451;48.638;10.624;2023-04-19T15:25:55;22.40;46.10
44723;DHT22;30451;48.638;10.624;2023-04-19T15:28:24;22.40;46.20
44723;DHT22;30451;48.638;10.624;2023-04-19T15:31:01;22.40;46.20